createdAt,value
2022-08-26T00:04:40.865Z,8.40
2022-08-26T00:09:47.294Z,8.40
2022-08-26T00:14:50.868Z,8.20
2022-08-26T00:19:54.484Z,7.80
2022-08-26T00:24:58.614Z,8.30
2022-08-26T00:30:06.921Z,9.00
2022-08-26T00:35:12.099Z,8.60
2022-08-26T00:40:20.373Z,8.50
2022-08-26T00:45:24.183Z,8.50
2022-08-26T00:55:41.520Z,9.40
2022-08-26T01:00:45.205Z,9.90
2022-08-26T01:05:48.961Z,9.70
2022-08-26T01:10:55.744Z,10.80
2022-08-26T01:16:03.077Z,8.00
2022-08-26T01:21:22.487Z,8.00
2022-08-26T01:26:31.084Z,6.60
2022-08-26T01:31:42.127Z,6.20
2022-08-26T01:36:50.718Z,5.20
2022-08-26T01:41:57.269Z,3.90
2022-08-26T01:47:07.379Z,3.40
2022-08-26T01:52:18.867Z,2.60
2022-08-26T01:57:27.406Z,2.70
2022-08-26T02:02:30.815Z,4.80
2022-08-26T02:07:34.742Z,5.50
2022-08-26T02:12:39.178Z,6.20
2022-08-26T02:17:47.633Z,7.00
2022-08-26T02:22:51.021Z,5.20
2022-08-26T02:27:56.995Z,3.80
2022-08-26T02:33:04.115Z,4.20
2022-08-26T02:38:10.262Z,5.00
2022-08-26T02:43:14.813Z,4.30
2022-08-26T02:48:21.490Z,5.10
2022-08-26T02:53:25.548Z,5.30
2022-08-26T02:58:29.048Z,5.20
2022-08-26T03:03:33.391Z,4.70
2022-08-26T03:08:36.795Z,6.00
2022-08-26T03:13:41.232Z,5.70
2022-08-26T03:18:51.997Z,6.50
2022-08-26T03:23:55.534Z,6.70
2022-08-26T03:29:20.661Z,5.60
2022-08-26T03:34:24.277Z,5.80
2022-08-26T03:39:31.543Z,5.80
2022-08-26T03:44:36.427Z,5.50
2022-08-26T03:49:43.629Z,4.80
2022-08-26T03:54:48.680Z,3.90
2022-08-26T03:59:52.912Z,3.50
2022-08-26T04:04:57.145Z,3.90
2022-08-26T04:10:00.559Z,4.50
2022-08-26T04:15:13.514Z,4.40
2022-08-26T04:20:18.517Z,4.30
2022-08-26T04:25:22.883Z,3.80
2022-08-26T04:30:28.035Z,4.10
2022-08-26T04:35:32.372Z,4.30
2022-08-26T04:40:35.885Z,4.20
2022-08-26T04:45:41.405Z,4.80
2022-08-26T04:50:44.771Z,5.60
2022-08-26T04:55:55.121Z,5.90
2022-08-26T05:00:58.761Z,5.50
2022-08-26T05:06:05.536Z,6.10
2022-08-26T05:11:09.365Z,6.20
2022-08-26T05:16:15.161Z,6.10
2022-08-26T05:21:24.390Z,6.20
2022-08-26T05:26:30.283Z,5.80
2022-08-26T05:31:34.885Z,6.10
2022-08-26T05:36:39.252Z,8.00
2022-08-26T05:41:44.767Z,6.70
2022-08-26T05:46:48.325Z,7.70
2022-08-26T05:51:54.601Z,7.30
2022-08-26T06:02:02.794Z,5.80
2022-08-26T06:07:13.501Z,6.10
2022-08-26T06:12:23.220Z,6.10
2022-08-26T06:17:26.620Z,5.90
2022-08-26T06:22:48.872Z,5.10
2022-08-26T06:27:52.180Z,5.80
2022-08-26T06:32:55.696Z,6.10
2022-08-26T06:37:59.212Z,5.70
2022-08-26T06:43:02.522Z,6.10
2022-08-26T06:48:07.626Z,6.50
2022-08-26T06:53:13.192Z,6.00
2022-08-26T06:58:16.655Z,8.70
2022-08-26T07:03:21.707Z,6.10
2022-08-26T07:08:25.119Z,6.00
2022-08-26T07:13:30.524Z,5.60
2022-08-26T07:18:37.342Z,5.60
2022-08-26T07:23:42.840Z,5.30
2022-08-26T07:28:49.140Z,4.90
2022-08-26T07:33:53.858Z,4.80
2022-08-26T07:38:57.787Z,5.00
2022-08-26T07:44:01.404Z,4.70
2022-08-26T07:49:04.869Z,5.00
2022-08-26T07:54:08.231Z,5.00
2022-08-26T07:59:13.762Z,4.30
2022-08-26T08:04:26.236Z,5.10
2022-08-26T08:09:30.040Z,12.40
2022-08-26T08:14:34.990Z,13.70
2022-08-26T08:19:39.242Z,6.40
2022-08-26T08:24:43.150Z,6.30
2022-08-26T08:29:47.790Z,4.90
2022-08-26T08:34:52.395Z,4.10
2022-08-26T08:39:55.767Z,4.40
2022-08-26T08:45:37.380Z,4.40
2022-08-26T08:50:46.603Z,4.20
2022-08-26T08:56:28.419Z,4.00
2022-08-26T09:01:54.077Z,4.50
2022-08-26T09:07:00.287Z,5.20
2022-08-26T09:12:07.777Z,4.10
2022-08-26T09:17:37.776Z,3.90
2022-08-26T09:22:41.710Z,4.00
2022-08-26T09:27:53.718Z,3.30
2022-08-26T09:33:10.823Z,3.20
2022-08-26T09:38:35.310Z,3.30
2022-08-26T09:43:38.772Z,3.60
2022-08-26T09:48:43.525Z,4.40
2022-08-26T09:53:53.450Z,3.50
2022-08-26T09:58:58.024Z,3.40
2022-08-26T10:04:26.794Z,4.00
2022-08-26T10:09:35.745Z,3.40
2022-08-26T10:14:48.411Z,3.20
2022-08-26T10:20:22.835Z,3.40
2022-08-26T10:25:38.035Z,3.30
2022-08-26T10:30:47.366Z,3.60
2022-08-26T10:35:53.962Z,3.60
2022-08-26T10:41:15.891Z,3.30
2022-08-26T10:46:27.297Z,3.40
2022-08-26T10:51:38.825Z,2.60
2022-08-26T10:57:03.744Z,3.50
2022-08-26T11:02:24.167Z,2.90
2022-08-26T11:07:34.328Z,3.20
2022-08-26T11:12:37.607Z,3.00
2022-08-26T11:17:47.196Z,2.90
2022-08-26T11:22:51.781Z,3.80
2022-08-26T11:27:58.403Z,3.60
2022-08-26T11:33:01.838Z,3.00
2022-08-26T11:38:50.274Z,3.10
2022-08-26T11:43:53.620Z,2.80
2022-08-26T11:49:06.123Z,3.00
2022-08-26T11:54:13.044Z,2.90
2022-08-26T12:04:46.692Z,2.90
2022-08-26T12:09:57.120Z,2.60
2022-08-26T12:15:15.441Z,3.00
2022-08-26T12:20:49.169Z,2.40
2022-08-26T12:26:03.234Z,2.90
2022-08-26T12:31:19.548Z,2.60
2022-08-26T12:36:32.383Z,2.70
2022-08-26T12:41:47.369Z,2.80
2022-08-26T12:46:51.102Z,2.40
2022-08-26T12:51:54.382Z,2.70
2022-08-26T12:56:57.697Z,2.50
2022-08-26T13:02:01.106Z,3.60
2022-08-26T13:07:20.821Z,2.90
2022-08-26T13:12:37.416Z,2.80
2022-08-26T13:17:42.289Z,3.40
2022-08-26T13:22:45.805Z,3.30
2022-08-26T13:27:57.511Z,2.70
2022-08-26T13:33:02.222Z,3.00
2022-08-26T13:38:32.865Z,3.30
2022-08-26T13:43:37.389Z,2.50
2022-08-26T13:48:41.131Z,2.80
2022-08-26T13:53:48.886Z,2.70
2022-08-26T13:58:52.298Z,2.60
2022-08-26T14:03:57.408Z,2.60
2022-08-26T14:09:00.989Z,3.20
2022-08-26T14:14:04.744Z,2.70
2022-08-26T14:19:10.967Z,2.90
2022-08-26T14:24:14.595Z,2.50
2022-08-26T14:29:18.102Z,2.70
2022-08-26T14:34:25.201Z,2.10
2022-08-26T14:39:28.512Z,2.40
2022-08-26T14:44:33.872Z,2.00
2022-08-26T14:49:37.386Z,2.30
2022-08-26T14:54:40.901Z,2.90
2022-08-26T14:59:49.749Z,3.20
2022-08-26T15:04:53.674Z,4.20
2022-08-26T15:09:57.287Z,6.30
2022-08-26T15:15:00.704Z,8.70
2022-08-26T15:20:07.824Z,10.40
2022-08-26T15:25:11.316Z,12.90
2022-08-26T15:30:16.549Z,14.30
2022-08-26T15:35:19.888Z,15.30
2022-08-26T15:40:26.845Z,14.40
2022-08-26T15:45:33.018Z,14.00
2022-08-26T15:50:36.363Z,11.50
2022-08-26T16:00:43.042Z,7.80
2022-08-26T16:05:47.710Z,6.60
2022-08-26T16:10:51.682Z,5.90
2022-08-26T16:15:55.019Z,5.10
2022-08-26T16:21:12.520Z,4.30
2022-08-26T16:26:20.885Z,3.70
2022-08-26T16:31:24.519Z,3.20
2022-08-26T16:36:28.000Z,3.10
2022-08-26T16:41:31.995Z,3.00
2022-08-26T16:46:36.288Z,2.40
2022-08-26T16:51:39.694Z,2.70
2022-08-26T16:56:42.927Z,2.50
2022-08-26T17:01:46.317Z,2.90
2022-08-26T17:06:49.948Z,3.40
2022-08-26T17:11:54.683Z,3.50
2022-08-26T17:16:57.997Z,3.50
2022-08-26T17:22:01.225Z,3.50
2022-08-26T17:27:09.203Z,5.00
2022-08-26T17:32:12.663Z,3.70
2022-08-26T17:37:17.055Z,3.30
2022-08-26T17:42:20.404Z,4.20
2022-08-26T17:47:24.035Z,4.60
2022-08-26T17:52:28.282Z,4.10
2022-08-26T17:57:31.648Z,3.70
2022-08-26T18:07:48.667Z,3.90
2022-08-26T18:12:52.355Z,3.90
2022-08-26T18:17:55.645Z,3.40
2022-08-26T18:22:59.030Z,3.20
2022-08-26T18:28:02.407Z,3.60
2022-08-26T18:33:05.782Z,3.70
2022-08-26T18:38:10.848Z,3.30
2022-08-26T18:43:15.061Z,3.90
2022-08-26T18:48:18.271Z,3.50
2022-08-26T18:53:21.667Z,3.30
2022-08-26T18:58:25.754Z,4.00
2022-08-26T19:03:29.050Z,3.70
2022-08-26T19:08:32.255Z,3.90
2022-08-26T19:13:36.623Z,4.70
2022-08-26T19:18:40.034Z,5.60
2022-08-26T19:23:43.309Z,5.30
2022-08-26T19:33:53.383Z,6.30
2022-08-26T19:38:57.275Z,7.80
2022-08-26T19:44:02.843Z,8.50
2022-08-26T19:49:07.584Z,10.00
2022-08-26T19:54:11.097Z,11.00
2022-08-26T19:59:14.875Z,10.50
2022-08-26T20:04:18.129Z,9.90
2022-08-26T20:09:21.440Z,8.70
2022-08-26T20:19:48.237Z,7.60
2022-08-26T20:24:52.455Z,6.80
2022-08-26T20:29:57.746Z,5.80
2022-08-26T20:35:01.940Z,7.80
2022-08-26T20:40:08.592Z,7.30
2022-08-26T20:45:12.926Z,6.80
2022-08-26T20:50:16.709Z,6.40
2022-08-26T21:00:26.489Z,6.40
2022-08-26T21:05:30.633Z,6.30
2022-08-26T21:15:37.460Z,5.60
2022-08-26T21:20:40.770Z,5.90
2022-08-26T21:25:45.239Z,6.20
2022-08-26T21:30:48.856Z,5.90
2022-08-26T21:35:55.613Z,5.90
2022-08-26T21:41:09.862Z,5.30
2022-08-26T21:46:17.081Z,5.80
2022-08-26T21:51:23.502Z,5.60
2022-08-26T21:56:29.836Z,5.30
2022-08-26T22:01:35.122Z,5.00
2022-08-26T22:06:47.940Z,5.70
2022-08-26T22:11:52.062Z,5.30
2022-08-26T22:16:57.272Z,5.00
2022-08-26T22:22:01.320Z,4.70
2022-08-26T22:27:05.150Z,5.30
2022-08-26T22:32:08.789Z,6.00
2022-08-26T22:37:12.398Z,5.30
2022-08-26T22:42:15.835Z,5.20
2022-08-26T22:47:20.014Z,5.20
2022-08-26T22:52:23.318Z,6.00
2022-08-26T22:57:26.767Z,6.00
2022-08-26T23:02:30.109Z,4.90
2022-08-26T23:07:34.295Z,5.50
2022-08-26T23:12:38.224Z,5.20
2022-08-26T23:17:41.955Z,4.90
2022-08-26T23:27:49.271Z,4.70
2022-08-26T23:32:52.594Z,4.80
2022-08-26T23:37:56.100Z,4.40
2022-08-26T23:43:05.213Z,4.10
2022-08-26T23:48:08.722Z,4.70
2022-08-26T23:58:23.081Z,4.80
